Time;durP1;ratioP1;P1;durP2;ratioP2;P2;SDS_P1;SDS_P2;PMS_P1;PMS_P2;Temp;Humidity;BMP_temperature;BMP_pressure;BME280_temperature;BME280_humidity;BME280_pressure;Samples;Min_cycle;Max_cycle;Signal;HPM_P1;HPM_P2
2023/06/24 00:00:01;;;;;;;31.55;28.85;;;;;;;23.48;65.02;100424.59;5012420;28;96876;-83
2023/06/24 00:02:26;;;;;;;31.23;28.52;;;;;;;23.43;64.98;100424.97;4994408;28;99049;-83
2023/06/24 00:04:52;;;;;;;32.88;30.02;;;;;;;23.33;65.12;100409.81;5011410;28;98648;-83
2023/06/24 00:07:17;;;;;;;31.90;29.02;;;;;;;23.31;65.47;100426.03;5012133;28;97145;-83
2023/06/24 00:09:43;;;;;;;33.30;30.23;;;;;;;23.41;65.18;100444.84;5009406;28;96943;-83
2023/06/24 00:12:08;;;;;;;32.15;29.02;;;;;;;23.31;65.12;100418.00;5012306;28;98811;-84
2023/06/24 00:14:36;;;;;;;33.83;30.58;;;;;;;23.31;65.63;100446.63;5011065;28;98442;-83
2023/06/24 00:17:02;;;;;;;32.40;29.48;;;;;;;23.27;65.37;100432.63;5014095;28;96776;-83
2023/06/24 00:19:28;;;;;;;33.35;30.25;;;;;;;23.32;65.44;100435.75;5031970;28;96851;-83
2023/06/24 00:21:53;;;;;;;36.03;32.15;;;;;;;23.32;65.42;100441.13;5030550;28;99151;-83
2023/06/24 00:24:25;;;;;;;25.88;23.58;;;;;;;23.19;65.26;100430.63;5019389;28;98319;-83
2023/06/24 00:26:54;;;;;;;31.98;29.08;;;;;;;23.24;65.22;100425.72;5020499;28;96720;-83
2023/06/24 00:29:20;;;;;;;31.90;28.90;;;;;;;23.20;65.07;100426.09;4993750;28;97231;-83
2023/06/24 00:31:45;;;;;;;28.33;25.77;;;;;;;23.25;64.79;100443.47;5009258;28;98744;-83
2023/06/24 00:34:11;;;;;;;31.05;28.38;;;;;;;23.22;65.04;100438.38;5009903;28;97318;-83
2023/06/24 00:36:38;;;;;;;30.63;28.15;;;;;;;23.17;65.17;100451.31;5001782;28;97039;-83
2023/06/24 00:39:04;;;;;;;29.35;26.77;;;;;;;23.13;65.07;100449.88;5012109;28;96801;-83
2023/06/24 00:41:30;;;;;;;30.67;27.88;;;;;;;23.16;64.97;100449.63;5010978;28;99060;-83
2023/06/24 00:43:57;;;;;;;29.88;27.25;;;;;;;23.08;65.10;100449.41;4993602;28;100294;-83
2023/06/24 00:46:27;;;;;;;31.10;28.20;;;;;;;23.05;65.26;100452.34;5011217;28;96645;-82
2023/06/24 00:48:55;;;;;;;29.85;27.45;;;;;;;23.01;65.24;100462.47;5012377;28;96907;-82
2023/06/24 00:51:30;;;;;;;28.42;26.15;;;;;;;22.93;65.02;100448.00;5011099;28;99098;-83
2023/06/24 00:53:59;;;;;;;29.75;27.02;;;;;;;23.03;64.80;100471.19;5011633;28;98325;-83
2023/06/24 00:56:30;;;;;;;29.35;26.60;;;;;;;22.98;64.90;100464.53;4992489;28;96816;-82
2023/06/24 00:58:58;;;;;;;29.40;26.35;;;;;;;22.97;64.72;100454.81;4994000;28;96820;-83
2023/06/24 01:01:24;;;;;;;28.40;25.83;;;;;;;22.97;65.12;100468.19;4976136;28;100613;-83
2023/06/24 01:03:51;;;;;;;28.90;25.92;;;;;;;22.89;65.30;100467.94;4993507;28;100509;-83
2023/06/24 01:06:17;;;;;;;28.40;25.98;;;;;;;22.92;64.98;100473.91;4993371;28;97587;-83
2023/06/24 01:08:43;;;;;;;28.98;26.58;;;;;;;22.83;65.08;100470.19;4979676;28;96976;-83
2023/06/24 01:11:08;;;;;;;27.70;25.30;;;;;;;22.85;64.85;100466.53;5010957;28;98633;-83
2023/06/24 01:13:34;;;;;;;26.67;24.65;;;;;;;22.72;65.23;100469.34;5011391;28;98316;-83
2023/06/24 01:16:04;;;;;;;27.92;25.27;;;;;;;22.79;65.17;100483.94;4993170;28;96893;-83
2023/06/24 01:18:40;;;;;;;27.95;25.40;;;;;;;22.80;65.11;100491.81;4993227;28;96994;-83
2023/06/24 01:21:24;;;;;;;27.02;24.85;;;;;;;22.76;65.26;100494.88;4992673;28;98622;-83
2023/06/24 01:23:49;;;;;;;26.00;23.63;;;;;;;22.81;65.03;100506.91;4992832;28;98610;-83
2023/06/24 01:27:05;;;;;;;26.20;23.70;;;;;;;22.71;65.33;100510.47;5011035;28;98311;-82
2023/06/24 01:29:54;;;;;;;25.75;23.55;;;;;;;22.75;65.04;100518.13;4967327;28;96836;-82
2023/06/24 01:32:27;;;;;;;23.92;22.10;;;;;;;22.77;64.74;100517.97;4996167;28;99429;-82
2023/06/24 01:35:00;;;;;;;22.80;21.20;;;;;;;22.74;64.63;100524.44;5014178;28;97154;-83
2023/06/24 01:37:42;;;;;;;20.20;18.90;;;;;;;22.75;64.31;100528.00;4996877;28;96769;-83
2023/06/24 01:40:11;;;;;;;21.70;20.20;;;;;;;22.74;63.90;100527.13;4996626;28;97077;-82
2023/06/24 01:42:40;;;;;;;21.05;19.65;;;;;;;22.46;64.25;100523.16;5014247;28;98821;-83
2023/06/24 01:45:07;;;;;;;22.08;20.35;;;;;;;22.38;64.19;100533.63;4999867;28;98284;-82
2023/06/24 01:47:34;;;;;;;21.02;19.63;;;;;;;22.42;63.79;100544.94;4996001;28;96927;-82
2023/06/24 01:50:02;;;;;;;21.08;19.38;;;;;;;22.33;63.80;100544.69;4996316;28;97309;-82
2023/06/24 01:52:29;;;;;;;20.48;19.10;;;;;;;22.22;63.72;100560.72;4996543;28;99469;-82
2023/06/24 01:54:55;;;;;;;21.27;19.67;;;;;;;22.12;63.84;100560.56;5013773;28;98286;-82
2023/06/24 01:57:22;;;;;;;21.55;19.90;;;;;;;22.12;63.36;100568.59;4992903;28;96862;-83
2023/06/24 01:59:48;;;;;;;21.50;19.77;;;;;;;22.13;63.06;100572.13;4979523;28;97523;-82
2023/06/24 02:02:14;;;;;;;21.38;19.98;;;;;;;22.12;62.68;100565.06;4996133;28;98637;-82
2023/06/24 02:04:40;;;;;;;21.60;19.75;;;;;;;22.10;62.48;100578.53;5012378;28;98293;-82
2023/06/24 02:07:07;;;;;;;21.70;19.90;;;;;;;21.95;62.54;100582.44;4995977;28;96741;-82
2023/06/24 02:09:33;;;;;;;20.60;19.17;;;;;;;21.79;62.64;100568.56;4996274;28;97703;-82
2023/06/24 02:12:01;;;;;;;21.83;20.10;;;;;;;21.76;62.68;100572.31;5013442;28;99110;-82
2023/06/24 02:14:27;;;;;;;22.38;20.55;;;;;;;21.85;62.51;100576.09;4995470;28;100420;-83
2023/06/24 02:16:56;;;;;;;22.05;20.17;;;;;;;21.89;62.32;100578.41;4995902;28;96783;-82
2023/06/24 02:19:23;;;;;;;22.27;20.67;;;;;;;21.78;62.50;100570.34;4995798;28;96887;-82
2023/06/24 02:21:51;;;;;;;21.10;19.70;;;;;;;21.84;62.55;100585.91;4995394;28;98943;-82
2023/06/24 02:24:17;;;;;;;23.40;21.50;;;;;;;21.75;62.09;100585.78;4979361;28;98436;-82
2023/06/24 02:26:44;;;;;;;22.77;21.17;;;;;;;21.78;62.02;100588.22;4978789;28;96785;-83
2023/06/24 02:29:11;;;;;;;23.52;21.52;;;;;;;21.73;62.08;100587.72;4980033;28;97075;-82
2023/06/24 02:31:36;;;;;;;22.67;20.85;;;;;;;21.73;61.69;100585.03;4994696;28;99201;-83
2023/06/24 02:34:02;;;;;;;22.60;20.98;;;;;;;21.81;61.43;100604.84;5013483;28;98709;-82
2023/06/24 02:36:28;;;;;;;25.33;20.67;;;;;;;21.74;61.70;100592.94;4995097;28;97377;-82
2023/06/24 02:38:53;;;;;;;22.15;20.60;;;;;;;21.56;62.25;100610.38;4978813;28;96860;-82
2023/06/24 02:41:19;;;;;;;22.08;20.25;;;;;;;21.33;62.37;100599.56;5013141;28;98615;-82
2023/06/24 02:43:44;;;;;;;21.17;19.80;;;;;;;21.48;62.20;100609.13;5013196;28;98424;-83
2023/06/24 02:46:10;;;;;;;21.52;19.90;;;;;;;21.51;62.40;100613.38;5013375;28;96811;-83
2023/06/24 02:48:38;;;;;;;21.33;19.73;;;;;;;21.56;62.02;100613.06;5013480;28;96854;-82
2023/06/24 02:51:05;;;;;;;22.50;20.77;;;;;;;21.46;62.05;100624.41;4975630;28;100366;-83
2023/06/24 02:53:30;;;;;;;23.27;21.52;;;;;;;21.42;61.74;100622.94;4995881;28;97706;-83
2023/06/24 02:55:57;;;;;;;21.10;19.52;;;;;;;21.42;61.54;100606.91;5011614;28;97062;-82
2023/06/24 02:58:24;;;;;;;22.70;21.05;;;;;;;21.52;61.50;100619.56;4978789;28;96729;-83
2023/06/24 03:00:50;;;;;;;22.02;20.40;;;;;;;21.45;61.51;100633.38;4994494;28;97405;-82
2023/06/24 03:03:30;;;;;;;21.87;20.30;;;;;;;21.50;61.25;100630.38;4997715;28;97359;-82
2023/06/24 03:05:56;;;;;;;21.55;19.95;;;;;;;21.45;61.09;100629.88;4978359;28;96822;-83
2023/06/24 03:08:26;;;;;;;21.35;19.95;;;;;;;21.39;61.32;100635.69;5013295;28;97143;-82
2023/06/24 03:10:54;;;;;;;20.85;19.45;;;;;;;21.38;61.61;100648.19;4994514;28;100993;-83
2023/06/24 03:13:23;;;;;;;21.33;19.85;;;;;;;21.40;61.40;100656.06;4978597;28;99975;-83
2023/06/24 03:16:12;;;;;;;21.95;20.27;;;;;;;21.11;61.33;100647.50;5012615;28;96776;-82
2023/06/24 03:18:44;;;;;;;23.70;21.55;;;;;;;21.21;61.10;100659.22;4995207;28;96918;-82
2023/06/24 03:21:10;;;;;;;23.13;21.25;;;;;;;21.17;61.15;100653.22;5012633;28;98597;-83
2023/06/24 03:23:36;;;;;;;22.17;20.38;;;;;;;21.21;61.35;100669.91;4994685;28;100121;-82
2023/06/24 03:26:02;;;;;;;21.30;19.80;;;;;;;21.19;61.72;100675.34;4993975;28;97099;-82
2023/06/24 03:28:31;;;;;;;22.67;20.75;;;;;;;21.23;61.61;100683.97;4994917;28;97664;-82
2023/06/24 03:31:07;;;;;;;21.05;19.73;;;;;;;21.07;62.09;100689.56;4993895;28;100466;-83
2023/06/24 03:33:32;;;;;;;21.30;19.70;;;;;;;20.97;62.15;100680.50;5012784;28;98085;-83
2023/06/24 03:35:58;;;;;;;21.65;20.15;;;;;;;20.94;62.25;100678.06;4994299;28;96893;-83
2023/06/24 03:38:28;;;;;;;21.52;19.75;;;;;;;20.85;62.68;100682.25;4994935;28;96857;-82
2023/06/24 03:40:55;;;;;;;21.92;20.33;;;;;;;21.01;62.41;100704.22;4994066;28;100400;-83
2023/06/24 03:43:21;;;;;;;23.08;21.02;;;;;;;21.04;62.33;100695.13;4994847;28;100458;-83
2023/06/24 03:45:48;;;;;;;20.00;18.75;;;;;;;21.10;62.25;100694.69;5010427;28;97709;-82
2023/06/24 03:48:14;;;;;;;19.92;18.60;;;;;;;21.18;62.08;100702.16;4994861;28;97107;-83
2023/06/24 03:50:39;;;;;;;20.63;19.25;;;;;;;21.13;61.75;100693.63;5010711;28;99376;-83
2023/06/24 03:53:05;;;;;;;20.45;19.15;;;;;;;21.16;62.34;100714.75;5012209;28;98195;-83
2023/06/24 03:55:32;;;;;;;22.08;20.33;;;;;;;21.07;62.17;100692.25;4994272;28;96814;-83
2023/06/24 03:57:57;;;;;;;19.60;18.10;;;;;;;21.01;62.58;100700.69;5012158;28;97587;-83
2023/06/24 04:00:23;;;;;;;22.40;20.90;;;;;;;20.95;62.32;100704.66;4994449;28;101309;-83
2023/06/24 04:02:52;;;;;;;21.95;20.45;;;;;;;20.92;62.46;100712.88;5011598;28;98477;-83
2023/06/24 04:05:17;;;;;;;21.38;19.42;;;;;;;20.98;62.29;100711.59;4978635;28;97243;-83
2023/06/24 04:07:46;;;;;;;20.73;19.27;;;;;;;20.94;62.67;100710.06;5003767;28;97283;-83
2023/06/24 04:10:12;;;;;;;21.83;20.33;;;;;;;20.85;62.79;100710.75;4976973;28;100487;-83
2023/06/24 04:12:38;;;;;;;21.27;19.88;;;;;;;20.93;62.82;100722.56;5022961;28;97367;-83
2023/06/24 04:15:05;;;;;;;20.55;19.05;;;;;;;20.95;62.45;100733.16;5000487;28;97121;-83
2023/06/24 04:17:32;;;;;;;22.70;20.98;;;;;;;20.96;62.13;100724.19;5004459;28;96967;-83
2023/06/24 04:19:59;;;;;;;22.48;20.60;;;;;;;20.77;62.62;100732.66;5001147;28;96709;-83
2023/06/24 04:22:24;;;;;;;20.65;19.35;;;;;;;20.82;62.39;100732.31;5011433;28;98510;-83
2023/06/24 04:24:50;;;;;;;21.10;19.40;;;;;;;20.76;62.47;100730.91;5011080;28;96795;-83
2023/06/24 04:27:16;;;;;;;20.90;19.42;;;;;;;20.73;62.51;100726.66;4996912;28;97119;-83
2023/06/24 04:29:42;;;;;;;21.58;19.88;;;;;;;20.76;62.79;100734.44;4992992;28;100318;-83
2023/06/24 04:32:09;;;;;;;20.55;19.08;;;;;;;20.78;62.63;100737.00;5013344;27;100677;-83
2023/06/24 04:34:35;;;;;;;19.77;18.58;;;;;;;20.68;62.75;100733.25;5011417;28;96735;-83
2023/06/24 04:37:00;;;;;;;20.80;19.30;;;;;;;20.77;62.48;100741.50;4993505;28;98291;-83
2023/06/24 04:39:27;;;;;;;21.45;19.90;;;;;;;20.75;62.50;100739.88;4995993;28;100428;-82
2023/06/24 04:41:52;;;;;;;20.02;18.63;;;;;;;20.78;62.37;100748.53;5011103;28;98724;-82
2023/06/24 04:44:19;;;;;;;20.35;18.80;;;;;;;20.80;61.99;100745.75;5011662;28;96720;-83
2023/06/24 04:46:45;;;;;;;20.65;19.23;;;;;;;20.84;62.07;100757.91;4993711;28;97217;-83
2023/06/24 04:49:11;;;;;;;20.30;19.00;;;;;;;20.78;62.17;100771.69;5011278;28;98435;-82
2023/06/24 04:51:36;;;;;;;20.15;18.75;;;;;;;20.76;62.21;100757.59;5010921;28;98715;-83
2023/06/24 04:54:03;;;;;;;19.33;18.02;;;;;;;20.81;62.05;100768.81;5011499;28;97075;-83
2023/06/24 04:56:29;;;;;;;20.05;18.65;;;;;;;20.85;62.09;100774.78;5010296;28;97004;-83
2023/06/24 04:58:55;;;;;;;20.92;19.30;;;;;;;20.82;61.84;100764.31;5009914;28;99183;-83
2023/06/24 05:01:20;;;;;;;19.55;18.35;;;;;;;20.72;62.38;100775.63;5011489;28;98653;-83
2023/06/24 05:03:47;;;;;;;21.42;19.50;;;;;;;20.78;61.87;100775.19;5014059;28;96713;-83
2023/06/24 05:06:12;;;;;;;20.45;19.02;;;;;;;20.77;61.99;100792.19;5015291;28;96944;-83
2023/06/24 05:08:38;;;;;;;20.63;19.27;;;;;;;20.77;62.19;100791.34;4996386;28;98947;-83
2023/06/24 05:11:03;;;;;;;21.17;19.67;;;;;;;20.67;62.11;100782.25;5014986;28;99113;-84
2023/06/24 05:13:29;;;;;;;21.10;19.50;;;;;;;20.68;62.30;100799.94;5014569;28;96879;-84
2023/06/24 05:15:54;;;;;;;22.35;20.70;;;;;;;20.67;62.22;100796.41;5014911;28;96840;-83
2023/06/24 05:18:20;;;;;;;22.08;20.40;;;;;;;20.51;62.59;100795.75;5014076;28;98754;-83
2023/06/24 05:20:45;;;;;;;22.60;20.90;;;;;;;20.63;62.42;100810.09;5014861;28;98398;-83
2023/06/24 05:23:11;;;;;;;20.85;19.23;;;;;;;20.63;62.35;100805.59;4996441;28;96882;-83
2023/06/24 05:25:37;;;;;;;23.48;21.35;;;;;;;20.67;62.34;100811.59;5015019;28;96885;-83
2023/06/24 05:28:02;;;;;;;21.70;19.98;;;;;;;20.60;62.48;100818.31;5013295;28;98798;-83
2023/06/24 05:30:28;;;;;;;20.95;19.55;;;;;;;20.66;61.95;100817.88;5014440;28;98345;-83
2023/06/24 05:32:53;;;;;;;20.20;18.77;;;;;;;20.67;61.71;100808.91;5013660;28;96821;-83
2023/06/24 05:35:19;;;;;;;20.45;19.05;;;;;;;20.69;61.81;100826.53;5015896;28;97575;-83
2023/06/24 05:37:44;;;;;;;20.70;19.20;;;;;;;20.64;61.97;100823.31;5027462;28;99238;-83
2023/06/24 05:40:12;;;;;;;20.80;18.95;;;;;;;20.73;61.80;100825.34;5023096;28;98338;-84
2023/06/24 05:42:37;;;;;;;21.15;19.70;;;;;;;20.70;61.56;100817.56;5010059;28;97132;-84
2023/06/24 05:45:03;;;;;;;22.27;20.67;;;;;;;20.74;61.39;100820.84;5024397;28;96823;-83
2023/06/24 05:47:29;;;;;;;19.52;18.25;;;;;;;20.67;61.40;100799.09;5031072;28;98907;-84
2023/06/24 05:49:54;;;;;;;21.83;20.17;;;;;;;20.87;61.01;100829.72;5008908;28;98545;-83
2023/06/24 05:52:19;;;;;;;19.77;18.27;;;;;;;20.81;61.22;100822.16;5023643;28;96943;-83
2023/06/24 05:54:45;;;;;;;19.75;18.35;;;;;;;20.87;61.05;100819.06;4996196;28;97430;-83
2023/06/24 05:57:10;;;;;;;20.17;18.42;;;;;;;20.93;60.86;100818.63;5013717;28;99314;-83
2023/06/24 05:59:36;;;;;;;20.40;19.00;;;;;;;20.90;61.00;100804.66;5013549;28;98284;-83
2023/06/24 06:02:02;;;;;;;20.45;18.92;;;;;;;21.03;60.89;100817.03;5013867;28;96954;-83
2023/06/24 06:04:28;;;;;;;19.23;17.83;;;;;;;21.00;61.04;100816.38;5013894;28;97234;-83
2023/06/24 06:06:53;;;;;;;20.08;18.73;;;;;;;21.07;60.72;100830.19;5013520;28;98638;-83
2023/06/24 06:09:20;;;;;;;21.33;19.30;;;;;;;21.01;61.00;100821.63;5013632;28;98290;-83
2023/06/24 06:11:45;;;;;;;21.48;19.60;;;;;;;21.03;61.16;100826.84;5014144;28;96682;-83
2023/06/24 06:14:11;;;;;;;20.02;18.42;;;;;;;21.02;61.35;100842.00;5012972;28;96827;-83
2023/06/24 06:16:36;;;;;;;21.38;19.65;;;;;;;20.96;61.58;100847.78;5013405;28;99108;-83
2023/06/24 06:19:02;;;;;;;19.77;18.38;;;;;;;20.98;61.50;100845.00;5012806;28;98403;-83
2023/06/24 06:21:28;;;;;;;20.15;18.80;;;;;;;21.06;61.41;100844.47;5013845;28;96677;-82
2023/06/24 06:23:53;;;;;;;19.58;18.08;;;;;;;21.04;61.27;100839.25;5013375;28;97470;-82
2023/06/24 06:26:19;;;;;;;20.05;18.58;;;;;;;21.09;61.55;100836.22;5013699;28;99121;-82
2023/06/24 06:28:47;;;;;;;21.00;19.33;;;;;;;21.11;61.86;100834.31;4995078;28;98249;-83
2023/06/24 06:31:12;;;;;;;19.73;18.40;;;;;;;21.20;61.86;100845.19;5013243;28;96816;-83
2023/06/24 06:33:38;;;;;;;21.50;19.45;;;;;;;21.25;61.91;100847.56;5013840;28;96904;-83
2023/06/24 06:36:04;;;;;;;21.45;19.65;;;;;;;21.27;61.81;100845.66;5013420;28;99096;-82
2023/06/24 06:38:29;;;;;;;20.08;18.45;;;;;;;21.21;61.73;100832.72;4995184;28;98083;-82
2023/06/24 06:40:55;;;;;;;20.15;18.55;;;;;;;21.29;61.87;100837.50;5012849;28;96857;-83
2023/06/24 06:43:21;;;;;;;21.15;19.65;;;;;;;21.37;61.67;100848.53;5013217;28;96834;-83
2023/06/24 06:45:47;;;;;;;20.10;18.73;;;;;;;21.42;61.24;100833.91;5013233;28;98853;-82
2023/06/24 06:48:12;;;;;;;20.67;19.20;;;;;;;21.58;60.91;100849.66;5012539;28;98220;-82
2023/06/24 06:50:37;;;;;;;20.95;19.45;;;;;;;21.54;60.87;100840.19;5013446;28;96809;-83
2023/06/24 06:53:03;;;;;;;20.73;19.33;;;;;;;21.56;60.69;100846.28;5012551;28;96994;-82
2023/06/24 06:55:29;;;;;;;21.08;19.58;;;;;;;21.66;61.11;100849.97;5013168;28;98857;-82
2023/06/24 06:57:55;;;;;;;21.40;20.00;;;;;;;21.77;60.78;100854.53;5013033;28;98552;-82
2023/06/24 07:00:20;;;;;;;21.63;19.83;;;;;;;21.86;60.66;100856.53;5017779;28;96859;-82
2023/06/24 07:02:46;;;;;;;22.05;20.42;;;;;;;21.83;60.50;100848.75;5012519;28;96877;-82
2023/06/24 07:05:11;;;;;;;21.38;19.95;;;;;;;21.93;60.15;100859.63;5012415;28;98730;-82
2023/06/24 07:07:38;;;;;;;20.88;19.38;;;;;;;21.94;60.07;100861.34;5010656;28;98552;-82
2023/06/24 07:10:04;;;;;;;21.88;20.05;;;;;;;21.97;60.07;100863.78;5017773;28;98083;-83
2023/06/24 07:12:30;;;;;;;22.55;20.98;;;;;;;21.96;60.21;100851.38;5014842;28;96921;-83
2023/06/24 07:14:56;;;;;;;22.92;21.23;;;;;;;21.97;60.32;100858.44;5016192;28;98674;-83
2023/06/24 07:17:22;;;;;;;22.23;20.55;;;;;;;21.88;60.46;100848.44;5017481;28;98511;-83
2023/06/24 07:19:47;;;;;;;22.85;20.85;;;;;;;21.93;60.74;100856.94;4992756;28;97364;-83
2023/06/24 07:22:14;;;;;;;22.17;20.58;;;;;;;22.00;60.55;100860.03;5013919;28;97774;-83
2023/06/24 07:24:39;;;;;;;22.35;20.75;;;;;;;21.99;60.44;100856.53;4995199;28;100426;-83
2023/06/24 07:27:05;;;;;;;21.55;19.92;;;;;;;22.00;60.62;100846.69;5020588;28;98552;-83
2023/06/24 07:29:31;;;;;;;23.85;22.00;;;;;;;22.00;60.79;100839.50;5018977;28;97404;-83
2023/06/24 07:31:56;;;;;;;22.42;20.83;;;;;;;22.12;60.61;100859.97;5024375;28;96970;-85
2023/06/24 07:34:22;;;;;;;22.63;20.73;;;;;;;22.19;60.75;100864.91;5003947;28;99438;-83
2023/06/24 07:36:47;;;;;;;22.98;21.27;;;;;;;22.21;60.65;100858.47;5027377;28;98692;-84
2023/06/24 07:39:13;;;;;;;23.27;21.58;;;;;;;22.24;60.30;100852.06;5025949;28;96746;-83
2023/06/24 07:41:39;;;;;;;22.23;20.63;;;;;;;22.27;60.21;100851.81;5001688;28;97358;-83
2023/06/24 07:44:04;;;;;;;22.48;20.67;;;;;;;22.31;60.42;100853.28;5014890;28;98972;-83
2023/06/24 07:46:30;;;;;;;23.70;21.95;;;;;;;22.29;60.56;100850.75;5010463;28;98723;-83
2023/06/24 07:48:56;;;;;;;23.48;21.75;;;;;;;22.31;60.61;100853.28;5026817;28;96670;-83
2023/06/24 07:51:21;;;;;;;22.40;20.80;;;;;;;22.34;60.38;100848.59;5025267;28;97297;-83
2023/06/24 07:53:47;;;;;;;22.95;21.25;;;;;;;22.55;60.01;100858.63;5009831;28;98507;-84
2023/06/24 07:56:12;;;;;;;23.77;22.08;;;;;;;22.72;59.86;100852.84;5009410;28;98425;-83
2023/06/24 07:58:38;;;;;;;23.33;21.63;;;;;;;22.83;59.53;100838.63;5012975;28;96727;-83
2023/06/24 08:01:04;;;;;;;24.73;22.33;;;;;;;23.05;58.85;100865.47;5012318;28;97531;-82
2023/06/24 08:03:29;;;;;;;24.58;22.70;;;;;;;23.09;58.87;100858.03;5011480;28;98795;-82
2023/06/24 08:05:56;;;;;;;24.15;22.50;;;;;;;23.11;58.88;100871.31;5015242;28;98775;-82
2023/06/24 08:08:22;;;;;;;25.15;23.05;;;;;;;22.98;59.96;100864.25;5021948;28;96802;-82
2023/06/24 08:10:47;;;;;;;23.70;21.88;;;;;;;23.07;59.55;100859.13;5001459;28;96858;-82
2023/06/24 08:13:13;;;;;;;25.25;23.40;;;;;;;23.22;59.58;100866.84;5009335;28;98813;-82
2023/06/24 08:15:39;;;;;;;24.23;22.42;;;;;;;23.20;59.41;100866.09;5009452;28;98721;-81
2023/06/24 08:18:05;;;;;;;24.75;22.90;;;;;;;23.21;59.38;100869.63;5009226;28;98282;-81
2023/06/24 08:20:30;;;;;;;25.60;23.67;;;;;;;23.30;59.33;100868.03;5007616;28;97669;-82
2023/06/24 08:22:56;;;;;;;23.00;21.02;;;;;;;23.26;59.67;100873.63;5022893;28;99210;-82
2023/06/24 08:25:21;;;;;;;21.77;20.23;;;;;;;23.19;59.73;100863.53;5017551;28;98470;-82
2023/06/24 08:27:47;;;;;;;24.52;22.63;;;;;;;23.35;59.58;100885.44;5016053;28;96717;-81
2023/06/24 08:30:16;;;;;;;25.25;23.35;;;;;;;23.26;59.69;100872.78;5013926;28;97872;-82
2023/06/24 08:32:41;;;;;;;25.20;23.20;;;;;;;23.36;59.76;100865.75;5027831;27;99001;-81
2023/06/24 08:35:09;;;;;;;26.17;24.17;;;;;;;23.53;59.65;100868.91;5029064;28;98452;-81
2023/06/24 08:37:34;;;;;;;25.98;23.80;;;;;;;23.71;59.41;100876.34;5013293;28;96835;-81
2023/06/24 08:40:00;;;;;;;25.50;23.70;;;;;;;23.65;58.95;100870.59;5019228;28;97666;-82
2023/06/24 08:42:25;;;;;;;24.73;22.88;;;;;;;23.50;58.97;100886.94;5010478;28;99139;-71
2023/06/24 08:44:51;;;;;;;25.35;23.48;;;;;;;23.42;59.25;100888.53;5001445;28;98302;-80
2023/06/24 08:47:17;;;;;;;24.92;23.13;;;;;;;23.38;59.55;100897.75;5013135;28;96967;-77
2023/06/24 08:49:55;;;;;;;25.27;23.38;;;;;;;23.33;59.74;100890.09;4991152;28;97701;-76
2023/06/24 08:52:21;;;;;;;25.60;23.50;;;;;;;23.30;60.01;100886.78;5010862;28;99161;-76
2023/06/24 08:54:50;;;;;;;24.95;23.23;;;;;;;23.11;60.61;100879.34;5018215;28;98462;-75
2023/06/24 08:57:16;;;;;;;25.83;23.75;;;;;;;23.05;60.80;100888.72;5011730;28;96928;-76
2023/06/24 08:59:42;;;;;;;25.33;23.52;;;;;;;23.00;60.72;100889.06;5011975;28;96890;-75
2023/06/24 09:02:07;;;;;;;26.38;23.92;;;;;;;22.99;60.09;100892.72;5011348;28;98991;-76
2023/06/24 09:04:34;;;;;;;26.13;24.13;;;;;;;22.87;60.02;100884.75;5010829;28;98307;-75
2023/06/24 09:06:59;;;;;;;25.73;23.73;;;;;;;22.75;60.43;100890.06;5010621;28;96783;-76
2023/06/24 09:09:25;;;;;;;27.15;24.67;;;;;;;22.69;60.77;100887.88;5016597;28;97585;-76
2023/06/24 09:11:58;;;;;;;25.90;23.70;;;;;;;22.66;60.65;100904.16;5019651;28;98500;-76
2023/06/24 09:14:28;;;;;;;26.27;23.98;;;;;;;22.64;60.73;100898.06;5006272;28;99540;-76
2023/06/24 09:17:06;;;;;;;26.98;24.83;;;;;;;22.65;60.68;100893.56;4997551;28;96951;-76
2023/06/24 09:19:36;;;;;;;26.90;24.40;;;;;;;22.60;60.61;100894.75;5018197;28;96817;-76
2023/06/24 09:22:03;;;;;;;26.00;23.92;;;;;;;22.59;61.08;100905.56;5011086;28;98628;-77
2023/06/24 09:24:32;;;;;;;25.52;23.52;;;;;;;22.65;60.91;100905.09;5014322;28;98511;-80
2023/06/24 09:26:58;;;;;;;24.95;22.90;;;;;;;22.71;60.45;100898.44;5010619;28;97088;-78
2023/06/24 09:29:28;;;;;;;24.73;22.95;;;;;;;22.86;60.02;100901.75;5010972;28;97193;-78
2023/06/24 09:31:55;;;;;;;24.10;22.40;;;;;;;22.98;59.59;100899.06;5008832;28;98579;-78
2023/06/24 09:34:21;;;;;;;24.65;22.85;;;;;;;23.12;59.27;100897.97;5008311;28;98448;-78
2023/06/24 09:36:54;;;;;;;26.30;24.17;;;;;;;23.30;59.11;100886.78;5008766;28;97144;-78
2023/06/24 09:39:30;;;;;;;25.10;23.27;;;;;;;23.53;58.84;100898.38;5008451;28;96804;-78
2023/06/24 09:41:55;;;;;;;26.27;23.92;;;;;;;23.59;58.32;100895.19;5000392;28;99112;-79
2023/06/24 09:44:21;;;;;;;25.58;23.67;;;;;;;23.58;57.94;100888.16;5007833;28;98336;-79
2023/06/24 09:46:47;;;;;;;25.02;23.17;;;;;;;23.60;57.49;100883.53;5015627;27;97280;-72
2023/06/24 09:49:13;;;;;;;25.80;23.52;;;;;;;23.67;57.61;100887.41;5023682;28;98379;-79
2023/06/24 09:51:40;;;;;;;25.60;23.50;;;;;;;23.78;57.80;100894.63;5011737;28;98687;-75
2023/06/24 09:54:06;;;;;;;26.90;24.63;;;;;;;23.93;57.72;100898.72;5012144;28;98573;-75
2023/06/24 09:56:41;;;;;;;25.50;23.15;;;;;;;24.03;57.22;100880.94;5007736;28;97216;-76
2023/06/24 09:59:07;;;;;;;25.73;23.55;;;;;;;24.23;56.57;100883.78;5013261;28;96751;-78
2023/06/24 10:01:38;;;;;;;25.40;23.70;;;;;;;24.39;55.90;100889.59;4996064;28;98616;-79
2023/06/24 10:04:08;;;;;;;25.85;23.67;;;;;;;24.45;55.32;100885.59;4995707;28;98539;-80
2023/06/24 10:06:34;;;;;;;25.08;22.98;;;;;;;24.46;55.21;100885.44;5002538;28;96905;-77
2023/06/24 10:09:01;;;;;;;25.40;23.50;;;;;;;24.38;55.84;100880.69;5021293;28;97160;-82
2023/06/24 10:11:26;;;;;;;26.05;23.23;;;;;;;24.30;55.87;100883.16;5020507;28;99038;-81
2023/06/24 10:13:53;;;;;;;26.88;24.45;;;;;;;24.29;55.89;100886.84;5025895;28;98212;-79
2023/06/24 10:16:19;;;;;;;25.20;23.25;;;;;;;24.25;56.03;100884.53;5013891;28;97037;-76
2023/06/24 10:18:45;;;;;;;24.85;22.95;;;;;;;24.03;56.26;100883.63;5014581;28;96845;-81
2023/06/24 10:21:11;;;;;;;25.30;23.17;;;;;;;24.21;56.18;100889.28;5002734;28;100843;-80
2023/06/24 10:23:49;;;;;;;25.42;23.40;;;;;;;24.40;55.89;100891.28;5003483;28;100253;-78
2023/06/24 10:26:23;;;;;;;25.58;23.58;;;;;;;24.67;55.18;100881.94;5019508;28;96921;-78
2023/06/24 10:29:01;;;;;;;25.95;23.50;;;;;;;25.11;54.37;100893.41;5016717;28;97138;-78
2023/06/24 10:31:52;;;;;;;26.02;23.50;;;;;;;25.53;53.47;100878.09;5002537;28;98698;-76
2023/06/24 10:34:30;;;;;;;25.38;23.15;;;;;;;25.92;52.77;100875.56;5016432;28;98318;-77
2023/06/24 10:37:05;;;;;;;26.33;23.98;;;;;;;26.14;51.88;100878.00;5017933;28;97383;-76
2023/06/24 10:39:40;;;;;;;25.33;23.20;;;;;;;26.25;50.86;100874.34;5015951;28;96954;-77
2023/06/24 10:42:43;;;;;;;23.45;21.55;;;;;;;26.20;51.62;100882.81;5017639;28;98789;-77
2023/06/24 10:45:08;;;;;;;24.88;22.88;;;;;;;26.09;51.28;100877.59;5022528;28;98880;-77
2023/06/24 10:47:35;;;;;;;23.92;21.95;;;;;;;26.11;51.13;100869.38;5028066;28;96809;-76
2023/06/24 10:50:00;;;;;;;24.70;22.45;;;;;;;26.17;51.26;100876.88;5013261;28;96974;-77
2023/06/24 10:52:26;;;;;;;25.33;23.10;;;;;;;26.12;51.29;100869.25;5021786;28;98648;-76
2023/06/24 10:54:52;;;;;;;23.95;22.08;;;;;;;25.99;50.83;100876.72;5012928;28;98408;-77
2023/06/24 10:57:25;;;;;;;24.55;22.50;;;;;;;25.89;51.62;100871.31;5013169;28;97107;-76
2023/06/24 10:59:55;;;;;;;25.38;23.20;;;;;;;25.85;52.38;100867.19;5013232;28;96921;-76
2023/06/24 11:02:22;;;;;;;24.05;22.05;;;;;;;25.91;52.25;100871.16;5012602;28;98962;-77
2023/06/24 11:05:01;;;;;;;22.63;20.92;;;;;;;26.05;51.71;100875.31;5027066;28;98253;-76
2023/06/24 11:07:30;;;;;;;24.48;22.33;;;;;;;26.15;51.86;100866.28;5018592;28;96710;-76
2023/06/24 11:10:01;;;;;;;23.20;21.42;;;;;;;26.07;50.72;100859.88;5013247;28;96720;-76